createdAt,value
2019-01-15T00:00:25.025Z,0.80
2019-01-15T00:02:03.199Z,0.80
2019-01-15T00:03:40.484Z,0.80
2019-01-15T00:05:16.647Z,0.70
2019-01-15T00:06:52.919Z,0.70
2019-01-15T00:08:29.130Z,0.70
2019-01-15T00:10:06.637Z,0.70
2019-01-15T00:11:42.693Z,0.80
2019-01-15T00:13:18.828Z,0.70
2019-01-15T00:14:55.117Z,0.70
2019-01-15T00:16:31.326Z,0.80
2019-01-15T00:18:07.404Z,0.80
2019-01-15T00:19:43.531Z,0.70
2019-01-15T00:21:19.697Z,0.70
2019-01-15T00:22:55.888Z,0.70
2019-01-15T00:24:32.138Z,0.70
2019-01-15T00:26:08.356Z,0.70
2019-01-15T00:27:44.579Z,0.70
2019-01-15T00:29:20.853Z,0.70
2019-01-15T00:30:57.130Z,0.70
2019-01-15T00:32:33.286Z,0.70
2019-01-15T00:34:09.400Z,0.70
2019-01-15T00:35:45.511Z,0.70
2019-01-15T00:37:21.621Z,0.70
2019-01-15T00:38:59.528Z,0.70
2019-01-15T00:40:35.696Z,0.70
2019-01-15T00:42:15.521Z,0.70
2019-01-15T00:43:49.721Z,0.70
2019-01-15T00:45:25.962Z,0.70
2019-01-15T00:47:02.088Z,0.70
2019-01-15T00:48:38.265Z,0.70
2019-01-15T00:50:15.440Z,0.70
2019-01-15T00:51:51.497Z,0.70
2019-01-15T00:53:27.706Z,0.70
2019-01-15T00:55:04.451Z,0.70
2019-01-15T00:56:40.648Z,0.70
2019-01-15T00:58:16.765Z,0.70
2019-01-15T00:59:52.866Z,0.70
2019-01-15T01:01:29.088Z,0.70
2019-01-15T01:03:05.597Z,0.70
2019-01-15T01:04:41.901Z,0.70
2019-01-15T01:06:18.163Z,0.70
2019-01-15T01:07:54.417Z,0.70
2019-01-15T01:09:30.556Z,0.70
2019-01-15T01:11:07.479Z,0.70
2019-01-15T01:12:43.897Z,0.70
2019-01-15T01:14:20.237Z,0.70
2019-01-15T01:15:56.692Z,0.70
2019-01-15T01:17:32.767Z,0.70
2019-01-15T01:19:08.963Z,0.70
2019-01-15T01:20:45.134Z,0.70
2019-01-15T01:22:21.220Z,0.70
2019-01-15T01:23:57.353Z,0.70
2019-01-15T01:25:33.526Z,0.70
2019-01-15T01:27:09.781Z,0.70
2019-01-15T01:28:45.985Z,0.70
2019-01-15T01:30:23.388Z,0.70
2019-01-15T01:32:00.082Z,0.70
2019-01-15T01:33:36.249Z,0.70
2019-01-15T01:35:12.557Z,0.70
2019-01-15T01:36:48.729Z,0.70
2019-01-15T01:38:24.886Z,0.70
2019-01-15T01:40:01.158Z,0.70
2019-01-15T01:41:37.613Z,0.70
2019-01-15T01:43:13.745Z,0.70
2019-01-15T01:44:49.874Z,0.70
2019-01-15T01:46:26.282Z,0.70
2019-01-15T01:48:03.069Z,0.70
2019-01-15T01:49:39.521Z,0.70
2019-01-15T01:51:15.938Z,0.80
2019-01-15T01:52:52.236Z,0.80
2019-01-15T01:54:28.306Z,0.70
2019-01-15T01:56:04.689Z,0.70
2019-01-15T01:57:41.137Z,0.70
2019-01-15T01:59:17.442Z,0.70
2019-01-15T02:00:53.600Z,0.70
2019-01-15T02:02:29.865Z,0.80
2019-01-15T02:04:06.093Z,0.80
2019-01-15T02:05:42.257Z,0.80
2019-01-15T02:07:18.413Z,0.80
2019-01-15T02:08:54.716Z,0.80
2019-01-15T02:10:30.772Z,0.80
2019-01-15T02:12:06.929Z,0.80
2019-01-15T02:13:44.744Z,0.80
2019-01-15T02:15:25.403Z,0.80
2019-01-15T02:17:01.747Z,0.80
2019-01-15T02:18:38.029Z,0.80
2019-01-15T02:20:16.905Z,0.80
2019-01-15T02:21:53.020Z,0.80
2019-01-15T02:23:29.205Z,0.80
2019-01-15T02:25:06.307Z,0.80
2019-01-15T02:26:42.644Z,0.80
2019-01-15T02:28:18.713Z,0.80
2019-01-15T02:29:54.845Z,0.80
2019-01-15T02:31:30.944Z,0.80
2019-01-15T02:33:07.229Z,0.90
2019-01-15T02:34:43.421Z,0.90
2019-01-15T02:36:19.537Z,0.90
2019-01-15T02:37:55.818Z,0.90
2019-01-15T02:39:31.966Z,0.90
2019-01-15T02:41:08.154Z,0.90
2019-01-15T02:42:46.714Z,0.90
2019-01-15T02:44:22.736Z,0.90
2019-01-15T02:45:58.945Z,0.90
2019-01-15T02:47:35.162Z,0.90
2019-01-15T02:49:11.248Z,0.90
2019-01-15T02:50:47.460Z,0.90
2019-01-15T02:52:23.717Z,0.90
2019-01-15T02:53:59.898Z,0.90
2019-01-15T02:55:36.156Z,0.90
2019-01-15T02:57:12.391Z,0.90
2019-01-15T02:58:48.589Z,0.90
2019-01-15T03:00:26.734Z,0.90
2019-01-15T03:02:03.167Z,0.90
2019-01-15T03:03:40.309Z,0.90
2019-01-15T03:05:16.634Z,0.90
2019-01-15T03:06:52.994Z,0.90
2019-01-15T03:08:29.322Z,0.90
2019-01-15T03:10:06.600Z,0.90
2019-01-15T03:11:42.754Z,0.90
2019-01-15T03:13:19.008Z,0.90
2019-01-15T03:14:55.187Z,0.80
2019-01-15T03:16:31.311Z,0.80
2019-01-15T03:18:07.385Z,0.80
2019-01-15T03:19:43.435Z,0.70
2019-01-15T03:21:19.649Z,0.70
2019-01-15T03:22:55.718Z,0.70
2019-01-15T03:24:31.854Z,0.70
2019-01-15T03:26:08.046Z,0.60
2019-01-15T03:27:44.276Z,0.60
2019-01-15T03:29:20.319Z,0.70
2019-01-15T03:30:56.451Z,0.60
2019-01-15T03:32:32.535Z,0.60
2019-01-15T03:34:08.730Z,0.60
2019-01-15T03:35:44.929Z,0.60
2019-01-15T03:37:21.165Z,0.60
2019-01-15T03:38:57.227Z,0.60
2019-01-15T03:40:33.366Z,0.70
2019-01-15T03:42:09.587Z,0.70
2019-01-15T03:43:45.757Z,0.70
2019-01-15T03:45:21.956Z,0.70
2019-01-15T03:46:58.260Z,0.70
2019-01-15T03:48:34.583Z,0.70
2019-01-15T03:50:10.904Z,0.70
2019-01-15T03:51:47.018Z,0.70
2019-01-15T03:53:31.516Z,0.70
2019-01-15T03:55:08.165Z,0.70
2019-01-15T03:56:44.278Z,0.70
2019-01-15T03:58:20.454Z,0.70
2019-01-15T03:59:56.568Z,0.70
2019-01-15T04:01:32.645Z,0.70
2019-01-15T04:03:08.911Z,0.70
2019-01-15T04:04:45.368Z,0.70
2019-01-15T04:06:21.510Z,0.70
2019-01-15T04:08:01.508Z,0.70
2019-01-15T04:09:37.891Z,0.80
2019-01-15T04:11:14.046Z,0.70
2019-01-15T04:12:50.349Z,0.70
2019-01-15T04:14:26.395Z,0.70
2019-01-15T04:16:02.764Z,0.70
2019-01-15T04:17:39.857Z,0.60
2019-01-15T04:19:15.944Z,0.60
2019-01-15T04:20:52.292Z,0.50
2019-01-15T04:22:28.416Z,0.50
2019-01-15T04:24:04.657Z,0.40
2019-01-15T04:25:40.774Z,0.40
2019-01-15T04:27:16.970Z,0.40
2019-01-15T04:28:53.143Z,0.30
2019-01-15T04:30:29.336Z,0.30
2019-01-15T04:32:05.467Z,0.30
2019-01-15T04:33:41.530Z,0.30
2019-01-15T04:35:17.888Z,0.30
2019-01-15T04:36:53.945Z,0.30
2019-01-15T04:38:31.045Z,0.30
2019-01-15T04:40:08.790Z,0.30
2019-01-15T04:41:47.361Z,0.30
2019-01-15T04:43:23.670Z,0.30
2019-01-15T04:44:59.867Z,0.30
2019-01-15T04:46:36.228Z,0.30
2019-01-15T04:48:12.348Z,0.30
2019-01-15T04:49:48.527Z,0.30
2019-01-15T04:51:24.673Z,0.30
2019-01-15T04:53:02.441Z,0.30
2019-01-15T04:54:38.715Z,0.30
2019-01-15T04:56:14.923Z,0.30
2019-01-15T04:57:50.979Z,0.30
2019-01-15T04:59:27.331Z,0.30
2019-01-15T05:01:03.607Z,0.30
2019-01-15T05:02:40.567Z,0.30
2019-01-15T05:04:16.732Z,0.30
2019-01-15T05:05:52.909Z,0.30
2019-01-15T05:07:28.977Z,0.30
2019-01-15T05:09:07.920Z,0.30
2019-01-15T05:10:43.997Z,0.30
2019-01-15T05:12:20.157Z,0.30
2019-01-15T05:13:56.298Z,0.30
2019-01-15T05:15:32.579Z,0.30
2019-01-15T05:17:09.931Z,0.30
2019-01-15T05:18:46.105Z,0.30
2019-01-15T05:20:22.248Z,0.30
2019-01-15T05:21:58.341Z,0.40
2019-01-15T05:23:34.621Z,0.30
2019-01-15T05:25:16.183Z,0.30
2019-01-15T05:26:52.298Z,0.40
2019-01-15T05:28:28.345Z,0.40
2019-01-15T05:30:05.793Z,0.40
2019-01-15T05:31:41.910Z,0.40
2019-01-15T05:33:17.962Z,0.40
2019-01-15T05:34:54.218Z,0.40
2019-01-15T05:36:30.281Z,0.40
2019-01-15T05:38:06.501Z,0.40
2019-01-15T05:39:42.741Z,0.40
2019-01-15T05:41:18.826Z,0.50
2019-01-15T05:42:54.978Z,0.50
2019-01-15T05:44:31.167Z,0.50
2019-01-15T05:46:07.312Z,0.50
2019-01-15T05:47:43.769Z,0.50
2019-01-15T05:49:19.936Z,0.50
2019-01-15T05:51:13.961Z,0.60
2019-01-15T05:52:50.250Z,0.60
2019-01-15T05:54:26.473Z,0.60
2019-01-15T05:56:02.694Z,0.60
2019-01-15T05:57:38.878Z,0.60
2019-01-15T05:59:15.029Z,0.60
2019-01-15T06:00:51.393Z,0.60
2019-01-15T06:02:27.554Z,0.70
2019-01-15T06:04:04.025Z,0.70
2019-01-15T06:05:40.260Z,0.70
2019-01-15T06:07:16.403Z,0.70
2019-01-15T06:08:52.529Z,0.70
2019-01-15T06:10:28.692Z,0.70
2019-01-15T06:12:04.928Z,0.70
2019-01-15T06:13:42.761Z,0.70
2019-01-15T06:15:19.217Z,0.70
2019-01-15T06:16:55.341Z,0.80
2019-01-15T06:18:31.623Z,0.80
2019-01-15T06:20:10.181Z,0.80
2019-01-15T06:21:46.423Z,0.80
2019-01-15T06:23:22.521Z,0.90
2019-01-15T06:24:58.846Z,0.90
2019-01-15T06:26:35.042Z,0.90
2019-01-15T06:28:11.184Z,0.90
2019-01-15T06:29:47.613Z,0.90
2019-01-15T06:31:24.018Z,0.90
2019-01-15T06:33:00.190Z,0.90
2019-01-15T06:34:37.398Z,0.90
2019-01-15T06:36:13.615Z,0.90
2019-01-15T06:37:51.419Z,0.90
2019-01-15T06:39:27.943Z,0.90
2019-01-15T06:41:04.431Z,0.90
2019-01-15T06:42:40.909Z,0.90
2019-01-15T06:44:16.990Z,0.90
2019-01-15T06:45:53.214Z,1.00
2019-01-15T06:47:29.351Z,1.00
2019-01-15T06:49:05.589Z,1.00
2019-01-15T06:50:41.777Z,1.00
2019-01-15T06:52:18.104Z,1.00
2019-01-15T06:53:54.210Z,1.00
2019-01-15T06:55:30.595Z,1.00
2019-01-15T06:57:06.893Z,1.00
2019-01-15T06:58:43.283Z,1.00
2019-01-15T07:00:21.830Z,1.00
2019-01-15T07:01:58.048Z,1.10
2019-01-15T07:03:34.233Z,1.10
2019-01-15T07:05:10.578Z,1.10
2019-01-15T07:06:46.778Z,1.10
2019-01-15T07:08:23.176Z,1.10
2019-01-15T07:09:59.435Z,1.10
2019-01-15T07:11:35.673Z,1.00
2019-01-15T07:13:11.823Z,1.00
2019-01-15T07:14:48.150Z,1.00
2019-01-15T07:16:24.652Z,1.00
2019-01-15T07:18:00.945Z,1.00
2019-01-15T07:19:37.173Z,1.00
2019-01-15T07:21:13.571Z,1.00
2019-01-15T07:22:49.860Z,1.00
2019-01-15T07:24:25.968Z,1.00
2019-01-15T07:26:02.145Z,1.00
2019-01-15T07:27:38.391Z,1.00
2019-01-15T07:29:14.529Z,1.10
2019-01-15T07:30:53.111Z,1.10
2019-01-15T07:32:29.311Z,1.10
2019-01-15T07:34:05.529Z,1.10
2019-01-15T07:35:41.797Z,1.10
2019-01-15T07:37:17.947Z,1.10
2019-01-15T07:38:54.088Z,1.20
2019-01-15T07:40:30.351Z,1.20
2019-01-15T07:42:06.597Z,1.20
2019-01-15T07:43:43.158Z,1.20
2019-01-15T07:45:19.345Z,1.20
2019-01-15T07:46:56.263Z,1.30
2019-01-15T07:48:32.527Z,1.30
2019-01-15T07:50:12.031Z,1.30
2019-01-15T07:51:48.222Z,1.30
2019-01-15T07:53:24.405Z,1.40
2019-01-15T07:55:00.673Z,1.40
2019-01-15T07:56:36.765Z,1.40
2019-01-15T07:58:12.909Z,1.40
2019-01-15T07:59:49.142Z,1.40
2019-01-15T08:01:25.505Z,1.40
2019-01-15T08:03:01.750Z,1.40
2019-01-15T08:04:37.961Z,1.50
2019-01-15T08:06:14.188Z,1.50
2019-01-15T08:07:50.540Z,1.50
2019-01-15T08:09:26.942Z,1.50
2019-01-15T08:11:03.217Z,1.50
2019-01-15T08:12:39.497Z,1.50
2019-01-15T08:14:15.798Z,1.60
2019-01-15T08:15:52.145Z,1.60
2019-01-15T08:17:28.347Z,1.60
2019-01-15T08:19:04.617Z,1.70
2019-01-15T08:20:40.914Z,1.70
2019-01-15T08:22:17.113Z,1.70
2019-01-15T08:23:53.268Z,1.70
2019-01-15T08:25:29.597Z,1.80
2019-01-15T08:27:05.818Z,1.80
2019-01-15T08:28:42.084Z,1.80
2019-01-15T08:30:23.331Z,1.80
2019-01-15T08:31:59.505Z,1.80
2019-01-15T08:33:35.658Z,1.80
2019-01-15T08:35:12.048Z,1.80
2019-01-15T08:36:48.417Z,1.80
2019-01-15T08:38:24.559Z,1.90
2019-01-15T08:40:00.630Z,1.90
2019-01-15T08:41:36.825Z,1.90
2019-01-15T08:43:13.088Z,1.90
2019-01-15T08:44:49.258Z,1.90
2019-01-15T08:46:26.590Z,1.90
2019-01-15T08:48:21.837Z,1.90
2019-01-15T08:49:57.949Z,1.90
2019-01-15T08:51:34.482Z,1.90
2019-01-15T08:53:11.540Z,1.90
2019-01-15T08:54:47.669Z,1.90
2019-01-15T08:56:23.869Z,2.00
2019-01-15T08:58:00.479Z,2.00
2019-01-15T08:59:36.683Z,2.00
2019-01-15T09:01:13.027Z,2.00
2019-01-15T09:02:49.267Z,2.00
2019-01-15T09:04:25.403Z,2.00
2019-01-15T09:06:01.714Z,2.00
2019-01-15T09:07:39.100Z,2.00
2019-01-15T09:09:15.335Z,2.10
2019-01-15T09:10:51.605Z,2.10
2019-01-15T09:12:27.934Z,2.20
2019-01-15T09:14:04.425Z,2.20
2019-01-15T09:15:40.626Z,2.20
2019-01-15T09:17:16.850Z,2.30
2019-01-15T09:18:52.979Z,2.30
2019-01-15T09:20:29.206Z,2.40
2019-01-15T09:22:05.449Z,2.40
2019-01-15T09:23:41.553Z,2.40
2019-01-15T09:25:17.906Z,2.50
2019-01-15T09:26:54.065Z,2.50
2019-01-15T09:28:30.178Z,2.50
2019-01-15T09:30:10.266Z,2.50
2019-01-15T09:31:46.493Z,2.50
2019-01-15T09:33:22.606Z,2.50
2019-01-15T09:34:59.018Z,2.50
2019-01-15T09:36:35.302Z,2.50
2019-01-15T09:38:11.755Z,2.50
2019-01-15T09:39:48.895Z,2.50
2019-01-15T09:41:25.274Z,2.50
2019-01-15T09:43:01.446Z,2.50
2019-01-15T09:44:37.685Z,2.60
2019-01-15T09:46:13.773Z,2.60
2019-01-15T09:47:54.718Z,2.60
2019-01-15T09:49:30.903Z,2.50
2019-01-15T09:51:07.157Z,2.50
2019-01-15T09:52:43.278Z,2.50
2019-01-15T09:54:19.512Z,2.60
2019-01-15T09:55:55.645Z,2.50
2019-01-15T09:57:31.855Z,2.60
2019-01-15T09:59:09.233Z,2.60
2019-01-15T10:00:45.502Z,2.60
2019-01-15T10:02:24.027Z,2.60
2019-01-15T10:04:00.355Z,2.70
2019-01-15T10:05:36.449Z,2.70
2019-01-15T10:07:12.761Z,2.80
2019-01-15T10:08:49.058Z,2.80
2019-01-15T10:10:25.481Z,2.90
2019-01-15T10:12:01.702Z,2.90
2019-01-15T10:13:37.981Z,2.90
2019-01-15T10:15:15.322Z,3.00
2019-01-15T10:16:51.572Z,3.00
2019-01-15T10:18:28.014Z,3.00
2019-01-15T10:20:04.781Z,3.00
2019-01-15T10:21:41.802Z,3.10
2019-01-15T10:23:17.888Z,3.10
2019-01-15T10:24:54.142Z,3.10
2019-01-15T10:26:30.291Z,3.20
2019-01-15T10:28:06.998Z,3.20
2019-01-15T10:29:43.547Z,3.20
2019-01-15T10:31:58.118Z,3.30
2019-01-15T10:34:16.239Z,3.30
2019-01-15T10:35:54.226Z,3.40
2019-01-15T10:37:30.454Z,3.50
2019-01-15T10:39:10.421Z,3.50
2019-01-15T10:40:46.816Z,3.50
2019-01-15T10:42:23.203Z,3.50
2019-01-15T10:43:59.398Z,3.50
2019-01-15T10:45:35.602Z,3.60
2019-01-15T10:47:11.769Z,3.60
2019-01-15T10:48:47.924Z,3.70
2019-01-15T10:50:24.081Z,3.80
2019-01-15T10:52:00.299Z,3.80
2019-01-15T10:53:36.504Z,3.90
2019-01-15T10:55:12.708Z,4.00
2019-01-15T10:56:48.832Z,4.20
2019-01-15T10:58:25.247Z,4.30
2019-01-15T11:00:01.426Z,4.30
2019-01-15T11:01:40.068Z,4.30
2019-01-15T11:03:16.158Z,4.30
2019-01-15T11:04:52.298Z,4.30
2019-01-15T11:06:28.415Z,4.20
2019-01-15T11:08:05.402Z,4.30
2019-01-15T11:09:41.489Z,4.30
2019-01-15T11:11:17.651Z,4.40
2019-01-15T11:12:53.890Z,4.40
2019-01-15T11:14:30.145Z,4.40
2019-01-15T11:16:06.425Z,4.60
2019-01-15T11:17:42.887Z,4.70
2019-01-15T11:19:19.080Z,4.70
2019-01-15T11:20:55.388Z,4.70
2019-01-15T11:22:32.551Z,4.80
2019-01-15T11:24:08.793Z,4.90
2019-01-15T11:25:44.991Z,4.80
2019-01-15T11:27:21.352Z,4.90
2019-01-15T11:28:57.530Z,4.90
2019-01-15T11:30:33.777Z,4.90
2019-01-15T11:32:10.773Z,5.00
2019-01-15T11:33:47.004Z,5.00
2019-01-15T11:35:23.158Z,4.90
2019-01-15T11:36:59.265Z,5.00
2019-01-15T11:38:35.503Z,5.00
2019-01-15T11:40:12.278Z,5.00
2019-01-15T11:41:48.664Z,5.10
2019-01-15T11:43:24.786Z,5.10
2019-01-15T11:45:03.539Z,5.20
2019-01-15T11:46:38.921Z,5.20
2019-01-15T11:48:15.251Z,5.10
2019-01-15T11:49:51.435Z,5.10
2019-01-15T11:51:27.511Z,5.10
2019-01-15T11:53:03.846Z,5.20
2019-01-15T11:54:40.003Z,5.20
2019-01-15T11:56:16.148Z,5.10
2019-01-15T11:57:52.333Z,5.10
2019-01-15T11:59:29.023Z,5.20
2019-01-15T12:01:15.333Z,5.20
2019-01-15T12:03:13.252Z,5.30
2019-01-15T12:05:06.880Z,5.30
2019-01-15T12:07:00.643Z,5.30
2019-01-15T12:09:04.923Z,5.40
2019-01-15T12:10:59.444Z,5.50
2019-01-15T12:12:45.525Z,5.50
2019-01-15T12:14:36.137Z,5.50
2019-01-15T12:16:37.365Z,5.50
2019-01-15T12:18:38.238Z,5.60
2019-01-15T12:20:30.377Z,5.60
2019-01-15T12:22:28.387Z,5.60
2019-01-15T12:24:22.345Z,5.50
2019-01-15T12:26:07.373Z,5.60
2019-01-15T12:27:56.467Z,5.40
2019-01-15T12:29:51.785Z,5.40
2019-01-15T12:31:59.099Z,5.40
2019-01-15T12:33:52.933Z,5.40
2019-01-15T12:35:53.917Z,5.40
2019-01-15T12:37:49.134Z,5.50
2019-01-15T12:39:53.341Z,5.50
2019-01-15T12:41:51.444Z,5.40
2019-01-15T12:43:49.526Z,5.20
2019-01-15T12:45:41.353Z,5.30
2019-01-15T12:47:27.170Z,5.30
2019-01-15T12:49:19.281Z,5.20
2019-01-15T12:51:22.048Z,5.20
2019-01-15T12:53:16.745Z,5.20
2019-01-15T12:55:03.745Z,5.30
2019-01-15T12:57:01.427Z,5.40
2019-01-15T12:59:02.426Z,5.40
2019-01-15T13:01:04.827Z,5.40
2019-01-15T13:03:18.418Z,5.50
2019-01-15T13:05:12.365Z,5.30
2019-01-15T13:07:00.042Z,5.30
2019-01-15T13:09:13.673Z,5.20
2019-01-15T13:11:17.762Z,5.30
2019-01-15T13:13:18.941Z,5.40
2019-01-15T13:15:34.510Z,5.50
2019-01-15T13:17:41.809Z,5.40
2019-01-15T13:19:55.122Z,5.20
2019-01-15T13:21:49.231Z,5.20
2019-01-15T13:24:02.624Z,5.00
2019-01-15T13:26:04.416Z,4.90
2019-01-15T13:28:11.855Z,4.80
2019-01-15T13:30:07.042Z,4.70
2019-01-15T13:31:51.634Z,4.50
2019-01-15T13:33:59.232Z,4.50
2019-01-15T13:35:54.410Z,4.50
2019-01-15T13:37:52.302Z,4.50
2019-01-15T13:39:47.417Z,4.40
2019-01-15T13:41:43.156Z,4.50
2019-01-15T13:43:38.317Z,4.50
2019-01-15T13:45:41.706Z,4.40
2019-01-15T13:47:27.883Z,4.50
2019-01-15T13:49:38.458Z,4.40
2019-01-15T13:51:51.610Z,4.30
2019-01-15T13:53:55.938Z,4.40
2019-01-15T13:55:49.829Z,4.40
2019-01-15T13:57:37.673Z,4.40
2019-01-15T13:59:35.445Z,4.30
2019-01-15T14:01:28.872Z,4.30
2019-01-15T14:03:23.125Z,4.30
2019-01-15T14:05:19.404Z,4.30
2019-01-15T14:07:23.611Z,4.20
2019-01-15T14:09:16.241Z,4.20
2019-01-15T14:11:10.923Z,4.30
2019-01-15T14:13:00.959Z,4.30
2019-01-15T14:14:54.897Z,4.40
2019-01-15T14:17:07.961Z,4.40
2019-01-15T14:19:06.210Z,4.30
2019-01-15T14:21:04.238Z,4.30
2019-01-15T14:22:53.102Z,4.30
2019-01-15T14:24:38.848Z,4.20
2019-01-15T14:26:33.009Z,4.20
2019-01-15T14:28:27.378Z,4.10
2019-01-15T14:30:21.449Z,4.10
2019-01-15T14:32:06.709Z,4.00
2019-01-15T14:34:20.060Z,4.00
2019-01-15T14:36:30.657Z,4.00
2019-01-15T14:38:41.359Z,4.00
2019-01-15T14:40:31.065Z,4.00
2019-01-15T14:42:38.314Z,4.00
2019-01-15T14:44:48.683Z,3.90
2019-01-15T14:46:49.666Z,3.90
2019-01-15T14:48:56.935Z,3.80
2019-01-15T14:50:55.170Z,3.80
2019-01-15T14:52:49.266Z,3.70
2019-01-15T14:54:53.867Z,3.70
2019-01-15T14:56:52.180Z,3.70
2019-01-15T14:59:05.662Z,3.70
2019-01-15T15:00:59.539Z,3.60
2019-01-15T15:02:54.416Z,3.60
2019-01-15T15:05:04.635Z,3.60
2019-01-15T15:06:53.274Z,3.60
2019-01-15T15:08:47.507Z,3.60
2019-01-15T15:10:58.182Z,3.60
2019-01-15T15:13:11.393Z,3.50
2019-01-15T15:15:09.358Z,3.50
2019-01-15T15:17:13.681Z,3.50
2019-01-15T15:19:07.118Z,3.50
2019-01-15T15:21:02.058Z,3.50
2019-01-15T15:23:15.868Z,3.50
2019-01-15T15:25:10.020Z,3.50
2019-01-15T15:26:54.564Z,3.50
2019-01-15T15:28:52.273Z,3.50
2019-01-15T15:30:45.280Z,3.50
2019-01-15T15:32:55.682Z,3.50
2019-01-15T15:34:49.737Z,3.50
2019-01-15T15:36:44.959Z,3.50
2019-01-15T15:38:55.363Z,3.40
2019-01-15T15:40:56.457Z,3.40
2019-01-15T15:42:49.630Z,3.40
2019-01-15T15:44:44.866Z,3.40
2019-01-15T15:46:38.925Z,3.40
2019-01-15T15:48:32.920Z,3.30
2019-01-15T15:50:29.498Z,3.40
2019-01-15T15:52:23.315Z,3.30
2019-01-15T15:54:17.418Z,3.30
2019-01-15T15:56:18.779Z,3.30
2019-01-15T15:58:26.121Z,3.30
2019-01-15T16:00:27.183Z,3.30
2019-01-15T16:02:29.106Z,3.30
2019-01-15T16:04:22.837Z,3.30
2019-01-15T16:06:27.326Z,3.30
2019-01-15T16:08:17.262Z,3.30
2019-01-15T16:10:14.989Z,3.30
2019-01-15T16:12:13.075Z,3.30
2019-01-15T16:13:57.629Z,3.30
2019-01-15T16:16:07.614Z,3.30
2019-01-15T16:17:52.014Z,3.30
2019-01-15T16:19:48.173Z,3.20
2019-01-15T16:21:42.430Z,3.20
2019-01-15T16:23:46.648Z,3.20
2019-01-15T16:25:53.632Z,3.30
2019-01-15T16:27:47.817Z,3.30
2019-01-15T16:29:41.574Z,3.20
2019-01-15T16:31:31.401Z,3.20
2019-01-15T16:33:29.575Z,3.30
2019-01-15T16:35:34.705Z,3.20
2019-01-15T16:37:23.177Z,3.30
2019-01-15T16:39:16.261Z,3.30
2019-01-15T16:41:18.026Z,3.30
2019-01-15T16:43:13.190Z,3.30
2019-01-15T16:45:17.430Z,3.30
2019-01-15T16:47:11.403Z,3.30
2019-01-15T16:49:15.694Z,3.30
2019-01-15T16:51:13.840Z,3.40
2019-01-15T16:53:09.077Z,3.40
2019-01-15T16:55:19.499Z,3.40
2019-01-15T16:57:13.858Z,3.30
2019-01-15T16:59:12.045Z,3.40
2019-01-15T17:01:07.293Z,3.30
2019-01-15T17:03:11.285Z,3.40
2019-01-15T17:05:15.686Z,3.40
2019-01-15T17:07:09.448Z,3.40
2019-01-15T17:09:03.254Z,3.40
2019-01-15T17:11:02.111Z,3.40
2019-01-15T17:13:03.145Z,3.40
2019-01-15T17:15:10.340Z,3.40
2019-01-15T17:17:14.969Z,3.40
2019-01-15T17:19:25.144Z,3.40
2019-01-15T17:21:35.409Z,3.40
2019-01-15T17:23:35.697Z,3.40
2019-01-15T17:25:43.221Z,3.40
2019-01-15T17:27:37.269Z,3.40
2019-01-15T17:29:32.829Z,3.40
2019-01-15T17:31:26.411Z,3.40
2019-01-15T17:33:20.678Z,3.40
2019-01-15T17:35:21.493Z,3.40
2019-01-15T17:37:08.926Z,3.40
2019-01-15T17:39:22.684Z,3.40
2019-01-15T17:41:26.889Z,3.40
2019-01-15T17:43:34.402Z,3.40
2019-01-15T17:45:25.357Z,3.40
2019-01-15T17:47:17.304Z,3.40
2019-01-15T17:49:30.645Z,3.40
2019-01-15T17:51:28.959Z,3.40
2019-01-15T17:53:22.823Z,3.40
2019-01-15T17:55:21.001Z,3.40
2019-01-15T17:57:16.165Z,3.40
2019-01-15T17:59:10.924Z,3.50
2019-01-15T18:01:08.722Z,3.50
2019-01-15T18:02:56.310Z,3.40
2019-01-15T18:04:42.995Z,3.40
2019-01-15T18:06:36.723Z,3.50
2019-01-15T18:08:44.084Z,3.50
2019-01-15T18:10:31.608Z,3.50
2019-01-15T18:12:25.571Z,3.40
2019-01-15T18:14:15.644Z,3.50
2019-01-15T18:16:22.153Z,3.50
2019-01-15T18:18:15.746Z,3.40
2019-01-15T18:20:00.325Z,3.50
2019-01-15T18:22:07.757Z,3.40
2019-01-15T18:24:15.823Z,3.40
2019-01-15T18:26:09.802Z,3.40
2019-01-15T18:28:01.759Z,3.40
2019-01-15T18:30:05.906Z,3.40
2019-01-15T18:31:59.355Z,3.40
2019-01-15T18:34:03.880Z,3.50
2019-01-15T18:35:55.251Z,3.40
2019-01-15T18:37:55.610Z,3.40
2019-01-15T18:39:56.421Z,3.40
2019-01-15T18:41:54.416Z,3.40
2019-01-15T18:43:53.207Z,3.40
2019-01-15T18:45:36.738Z,3.40
2019-01-15T18:47:30.748Z,3.50
2019-01-15T18:49:34.700Z,3.40
2019-01-15T18:51:38.426Z,3.40
2019-01-15T18:53:37.077Z,3.40
2019-01-15T18:55:32.330Z,3.40
2019-01-15T18:57:30.503Z,3.40
2019-01-15T18:59:18.545Z,3.40
2019-01-15T19:01:10.118Z,3.40
2019-01-15T19:03:01.046Z,3.40
2019-01-15T19:04:54.989Z,3.40
2019-01-15T19:06:50.144Z,3.40
2019-01-15T19:08:48.064Z,3.40
2019-01-15T19:10:39.334Z,3.40
2019-01-15T19:12:33.330Z,3.40
2019-01-15T19:14:34.563Z,3.40
2019-01-15T19:16:30.009Z,3.40
2019-01-15T19:18:18.258Z,3.40
2019-01-15T19:20:16.441Z,3.40
2019-01-15T19:22:17.881Z,3.40
2019-01-15T19:24:03.953Z,3.30
2019-01-15T19:26:04.989Z,3.30
2019-01-15T19:28:00.183Z,3.30
2019-01-15T19:29:54.048Z,3.30
2019-01-15T19:31:48.329Z,3.20
2019-01-15T19:33:52.710Z,3.20
2019-01-15T19:35:40.175Z,3.20
2019-01-15T19:37:34.015Z,3.20
2019-01-15T19:39:23.697Z,3.20
2019-01-15T19:41:38.274Z,3.20
2019-01-15T19:43:33.546Z,3.20
2019-01-15T19:45:43.622Z,3.20
2019-01-15T19:47:38.777Z,3.10
2019-01-15T19:49:28.162Z,3.10
2019-01-15T19:51:21.782Z,3.10
2019-01-15T19:53:17.628Z,3.10
2019-01-15T19:55:08.391Z,3.10
2019-01-15T19:57:06.579Z,3.10
2019-01-15T19:59:04.419Z,3.10
2019-01-15T20:00:58.658Z,3.00
2019-01-15T20:02:47.261Z,3.00
2019-01-15T20:04:41.342Z,3.00
2019-01-15T20:06:33.519Z,3.00
2019-01-15T20:08:28.680Z,3.00
2019-01-15T20:10:25.030Z,2.90
2019-01-15T20:12:17.409Z,2.90
2019-01-15T20:14:15.472Z,2.90
2019-01-15T20:16:10.426Z,2.90
2019-01-15T20:18:04.378Z,2.80
2019-01-15T20:19:59.748Z,2.80
2019-01-15T20:21:55.097Z,2.70
2019-01-15T20:23:52.962Z,2.80
2019-01-15T20:26:00.113Z,2.70
2019-01-15T20:28:04.701Z,2.80
2019-01-15T20:29:56.175Z,2.70
2019-01-15T20:31:47.686Z,2.70
2019-01-15T20:33:51.993Z,2.70
2019-01-15T20:35:47.308Z,2.70
2019-01-15T20:37:57.836Z,2.70
2019-01-15T20:39:47.091Z,2.70
2019-01-15T20:41:41.259Z,2.70
2019-01-15T20:43:36.386Z,2.70
2019-01-15T20:45:26.834Z,2.70
2019-01-15T20:47:36.968Z,2.70
2019-01-15T20:49:30.455Z,2.70
2019-01-15T20:51:44.777Z,2.70
2019-01-15T20:53:39.936Z,2.70
2019-01-15T20:55:24.190Z,2.70
2019-01-15T20:57:18.393Z,2.70
2019-01-15T20:59:12.400Z,2.70
2019-01-15T21:00:58.347Z,2.70
2019-01-15T21:02:51.207Z,2.70
2019-01-15T21:04:49.320Z,2.70
2019-01-15T21:06:53.334Z,2.60
2019-01-15T21:08:48.943Z,2.60
2019-01-15T21:10:50.206Z,2.60
2019-01-15T21:12:54.191Z,2.60
2019-01-15T21:14:58.371Z,2.60
2019-01-15T21:16:52.049Z,2.50
2019-01-15T21:18:48.329Z,2.60
2019-01-15T21:20:41.662Z,2.50
2019-01-15T21:22:48.978Z,2.50
2019-01-15T21:24:47.620Z,2.50
2019-01-15T21:26:41.146Z,2.50
2019-01-15T21:28:27.750Z,2.50
2019-01-15T21:30:22.256Z,2.50
2019-01-15T21:32:15.998Z,2.40
2019-01-15T21:34:21.434Z,2.40
2019-01-15T21:36:25.797Z,2.40
2019-01-15T21:38:27.981Z,2.40
2019-01-15T21:40:29.747Z,2.30
2019-01-15T21:42:22.565Z,2.30
2019-01-15T21:44:20.796Z,2.20
2019-01-15T21:46:31.064Z,2.20
2019-01-15T21:48:25.496Z,2.20
2019-01-15T21:50:13.745Z,2.20
2019-01-15T21:52:15.157Z,2.20
2019-01-15T21:54:08.814Z,2.10
2019-01-15T21:56:09.354Z,2.20
2019-01-15T21:58:13.777Z,2.20
2019-01-15T22:00:11.332Z,2.20
2019-01-15T22:02:15.675Z,2.10
2019-01-15T22:04:16.666Z,2.10
2019-01-15T22:06:13.570Z,2.10
2019-01-15T22:08:08.759Z,2.00
2019-01-15T22:10:19.202Z,1.90
2019-01-15T22:12:13.582Z,1.90
2019-01-15T22:14:07.431Z,1.80
2019-01-15T22:15:51.547Z,1.80
2019-01-15T22:17:52.738Z,1.80
2019-01-15T22:19:50.905Z,1.80
2019-01-15T22:21:51.875Z,1.70
2019-01-15T22:24:01.648Z,1.80
2019-01-15T22:26:06.107Z,1.80
2019-01-15T22:28:01.296Z,1.80
2019-01-15T22:29:50.011Z,1.70
2019-01-15T22:31:42.959Z,1.70
2019-01-15T22:33:47.212Z,1.60
2019-01-15T22:35:57.630Z,1.60
2019-01-15T22:37:55.826Z,1.60
2019-01-15T22:39:50.037Z,1.60
2019-01-15T22:41:38.953Z,1.50
2019-01-15T22:43:46.252Z,1.50
2019-01-15T22:45:58.014Z,1.40
2019-01-15T22:47:54.790Z,1.40
2019-01-15T22:49:46.291Z,1.40
2019-01-15T22:51:40.147Z,1.30
2019-01-15T22:53:34.254Z,1.30
2019-01-15T22:55:28.234Z,1.30
2019-01-15T22:57:22.023Z,1.20
2019-01-15T22:59:16.013Z,1.20
2019-01-15T23:01:17.457Z,1.20
2019-01-15T23:03:15.359Z,1.20
2019-01-15T23:05:01.558Z,1.20
2019-01-15T23:06:52.414Z,1.20
2019-01-15T23:08:35.105Z,1.20
2019-01-15T23:10:29.094Z,1.20
2019-01-15T23:12:23.160Z,1.20
2019-01-15T23:14:16.374Z,1.10
2019-01-15T23:16:17.277Z,1.20
2019-01-15T23:18:18.437Z,1.10
2019-01-15T23:20:04.482Z,1.10
2019-01-15T23:22:01.042Z,1.10
2019-01-15T23:24:05.142Z,1.10
2019-01-15T23:25:58.965Z,1.00
2019-01-15T23:27:58.290Z,1.00
2019-01-15T23:29:59.946Z,0.90